createdAt,value
2018-11-05T00:00:29.616Z,73.12
2018-11-05T00:02:58.103Z,73.52
2018-11-05T00:05:26.535Z,73.82
2018-11-05T00:07:54.995Z,74.46
2018-11-05T00:10:23.402Z,75.34
2018-11-05T00:12:51.842Z,74.60
2018-11-05T00:15:20.263Z,74.81
2018-11-05T00:17:48.720Z,75.07
2018-11-05T00:20:17.159Z,75.84
2018-11-05T00:22:45.633Z,76.17
2018-11-05T00:25:14.424Z,75.48
2018-11-05T00:27:43.250Z,75.79
2018-11-05T00:30:13.035Z,75.11
2018-11-05T00:32:41.902Z,75.34
2018-11-05T00:35:10.411Z,74.94
2018-11-05T00:37:38.930Z,75.55
2018-11-05T00:40:09.631Z,74.59
2018-11-05T00:42:38.085Z,75.59
2018-11-05T00:45:07.689Z,75.31
2018-11-05T00:47:36.139Z,76.34
2018-11-05T00:50:06.598Z,75.75
2018-11-05T00:52:35.081Z,76.18
2018-11-05T00:55:03.594Z,75.16
2018-11-05T00:57:32.124Z,75.13
2018-11-05T01:00:00.951Z,75.58
2018-11-05T01:02:29.443Z,76.39
2018-11-05T01:04:57.919Z,75.11
2018-11-05T01:07:26.715Z,75.57
2018-11-05T01:09:55.176Z,74.31
2018-11-05T01:12:23.625Z,73.78
2018-11-05T01:14:52.347Z,73.29
2018-11-05T01:17:20.755Z,72.56
2018-11-05T01:19:49.221Z,72.66
2018-11-05T01:22:17.711Z,73.24
2018-11-05T01:24:46.178Z,73.39
2018-11-05T01:27:14.579Z,72.49
2018-11-05T01:29:42.978Z,72.86
2018-11-05T01:32:11.423Z,72.05
2018-11-05T01:34:39.832Z,72.27
2018-11-05T01:37:08.342Z,71.49
2018-11-05T01:39:36.694Z,72.62
2018-11-05T01:42:05.331Z,72.48
2018-11-05T01:44:33.742Z,72.44
2018-11-05T01:47:02.178Z,72.06
2018-11-05T01:49:30.591Z,71.59
2018-11-05T01:51:59.062Z,72.44
2018-11-05T01:54:27.585Z,71.81
2018-11-05T01:56:56.153Z,71.65
2018-11-05T01:59:24.567Z,71.94
2018-11-05T02:01:53.050Z,71.24
2018-11-05T02:04:21.488Z,71.99
2018-11-05T02:06:49.942Z,72.11
2018-11-05T02:09:18.364Z,72.16
2018-11-05T02:11:46.862Z,71.29
2018-11-05T02:14:15.277Z,71.83
2018-11-05T02:16:43.715Z,71.79
2018-11-05T02:19:12.206Z,72.12
2018-11-05T02:21:40.626Z,72.36
2018-11-05T02:24:09.164Z,71.74
2018-11-05T02:26:37.971Z,72.00
2018-11-05T02:29:06.524Z,71.71
2018-11-05T02:31:35.699Z,71.54
2018-11-05T02:34:04.148Z,71.90
2018-11-05T02:36:32.615Z,72.10
2018-11-05T02:39:01.706Z,71.22
2018-11-05T02:41:30.117Z,71.97
2018-11-05T02:43:58.547Z,71.80
2018-11-05T02:46:26.956Z,71.72
2018-11-05T02:48:55.391Z,71.95
2018-11-05T02:51:23.798Z,72.01
2018-11-05T02:53:52.235Z,71.80
2018-11-05T02:56:20.663Z,72.22
2018-11-05T02:58:49.103Z,72.07
2018-11-05T03:01:17.511Z,71.81
2018-11-05T03:03:45.935Z,71.51
2018-11-05T03:06:14.346Z,72.08
2018-11-05T03:08:42.779Z,71.92
2018-11-05T03:11:11.227Z,71.86
2018-11-05T03:13:39.658Z,71.83
2018-11-05T03:16:08.763Z,71.94
2018-11-05T03:18:37.183Z,72.43
2018-11-05T03:21:05.678Z,72.47
2018-11-05T03:23:34.679Z,72.20
2018-11-05T03:26:03.117Z,71.86
2018-11-05T03:28:31.515Z,72.10
2018-11-05T03:30:59.955Z,72.54
2018-11-05T03:33:28.366Z,71.84
2018-11-05T03:35:56.839Z,72.49
2018-11-05T03:38:25.226Z,72.54
2018-11-05T03:40:53.690Z,72.10
2018-11-05T03:43:22.103Z,72.95
2018-11-05T03:45:50.547Z,72.20
2018-11-05T03:48:18.965Z,72.24
2018-11-05T03:50:47.416Z,72.95
2018-11-05T03:53:15.827Z,72.71
2018-11-05T03:55:44.401Z,73.06
2018-11-05T03:58:12.743Z,72.83
2018-11-05T04:00:41.198Z,72.89
2018-11-05T04:03:09.652Z,73.44
2018-11-05T04:05:38.018Z,72.74
2018-11-05T04:08:06.593Z,72.91
2018-11-05T04:10:34.988Z,73.59
2018-11-05T04:13:03.412Z,73.14
2018-11-05T04:15:31.952Z,73.35
2018-11-05T04:18:00.332Z,73.35
2018-11-05T04:20:28.731Z,73.27
2018-11-05T04:22:57.171Z,73.12
2018-11-05T04:25:25.578Z,72.75
2018-11-05T04:27:54.060Z,72.28
2018-11-05T04:30:22.449Z,72.16
2018-11-05T04:32:50.879Z,72.43
2018-11-05T04:35:19.280Z,72.65
2018-11-05T04:37:47.736Z,71.43
2018-11-05T04:40:16.139Z,71.83
2018-11-05T04:42:44.577Z,71.18
2018-11-05T04:45:13.790Z,71.46
2018-11-05T04:47:42.823Z,71.76
2018-11-05T04:50:12.489Z,71.88
2018-11-05T04:52:41.690Z,70.86
2018-11-05T04:55:10.160Z,71.71
2018-11-05T04:57:38.718Z,71.21
2018-11-05T05:00:12.641Z,71.12
2018-11-05T05:02:41.853Z,71.71
2018-11-05T05:05:11.404Z,71.47
2018-11-05T05:07:39.795Z,71.68
2018-11-05T05:10:08.977Z,71.06
2018-11-05T05:12:38.266Z,71.17
2018-11-05T05:15:06.993Z,70.74
2018-11-05T05:17:35.418Z,70.54
2018-11-05T05:20:04.006Z,70.00
2018-11-05T05:22:32.424Z,70.77
2018-11-05T05:25:00.839Z,70.76
2018-11-05T05:27:29.227Z,70.24
2018-11-05T05:29:57.637Z,70.73
2018-11-05T05:32:26.010Z,70.03
2018-11-05T05:34:54.426Z,70.44
2018-11-05T05:37:22.826Z,70.57
2018-11-05T05:39:51.254Z,70.26
2018-11-05T05:42:19.675Z,70.51
2018-11-05T05:44:48.098Z,70.49
2018-11-05T05:47:16.495Z,69.65
2018-11-05T05:49:44.934Z,70.20
2018-11-05T05:52:13.321Z,70.32
2018-11-05T05:54:41.738Z,69.20
2018-11-05T05:57:10.158Z,69.04
2018-11-05T05:59:38.553Z,68.68
2018-11-05T06:02:07.420Z,68.90
2018-11-05T06:04:35.854Z,68.49
2018-11-05T06:07:04.384Z,69.07
2018-11-05T06:09:32.747Z,69.16
2018-11-05T06:12:01.169Z,69.10
2018-11-05T06:14:29.546Z,69.51
2018-11-05T06:16:57.972Z,69.67
2018-11-05T06:19:26.354Z,69.12
2018-11-05T06:21:54.828Z,69.59
2018-11-05T06:24:23.194Z,68.91
2018-11-05T06:26:51.639Z,68.96
2018-11-05T06:29:20.031Z,68.55
2018-11-05T06:31:48.458Z,68.47
2018-11-05T06:34:16.838Z,68.60
2018-11-05T06:36:45.255Z,68.05
2018-11-05T06:39:14.047Z,68.67
2018-11-05T06:41:42.880Z,68.82
2018-11-05T06:44:11.334Z,69.01
2018-11-05T06:46:39.722Z,68.79
2018-11-05T06:49:08.230Z,69.22
2018-11-05T06:51:36.623Z,69.39
2018-11-05T06:54:05.674Z,69.01
2018-11-05T06:56:34.534Z,69.34
2018-11-05T06:59:02.958Z,68.74
2018-11-05T07:01:32.112Z,70.10
2018-11-05T07:04:00.546Z,69.92
2018-11-05T07:06:29.046Z,69.92
2018-11-05T07:08:57.466Z,69.72
2018-11-05T07:11:25.934Z,69.38
2018-11-05T07:13:54.454Z,69.94
2018-11-05T07:16:22.860Z,69.35
2018-11-05T07:18:51.483Z,69.90
2018-11-05T07:21:19.762Z,69.79
2018-11-05T07:23:48.229Z,69.79
2018-11-05T07:26:16.634Z,69.98
2018-11-05T07:28:45.137Z,69.43
2018-11-05T07:31:13.578Z,70.17
2018-11-05T07:33:42.280Z,70.23
2018-11-05T07:36:10.715Z,69.50
2018-11-05T07:38:39.170Z,69.49
2018-11-05T07:41:07.679Z,69.75
2018-11-05T07:43:36.129Z,69.66
2018-11-05T07:46:04.598Z,69.97
2018-11-05T07:48:32.989Z,69.77
2018-11-05T07:51:01.426Z,70.33
2018-11-05T07:53:29.839Z,70.19
2018-11-05T07:55:58.674Z,70.23
2018-11-05T07:58:27.087Z,70.11
2018-11-05T08:00:58.666Z,70.03
2018-11-05T08:03:27.519Z,70.43
2018-11-05T08:05:56.539Z,70.28
2018-11-05T08:08:25.024Z,69.97
2018-11-05T08:10:53.435Z,69.58
2018-11-05T08:13:21.987Z,68.74
2018-11-05T08:15:50.471Z,69.10
2018-11-05T08:18:18.940Z,69.20
2018-11-05T08:20:47.407Z,69.09
2018-11-05T08:23:15.871Z,68.77
2018-11-05T08:25:44.412Z,68.87
2018-11-05T08:28:12.834Z,68.57
2018-11-05T08:30:41.298Z,68.39
2018-11-05T08:33:09.884Z,68.53
2018-11-05T08:35:38.354Z,68.81
2018-11-05T08:38:06.886Z,68.40
2018-11-05T08:40:54.427Z,68.06
2018-11-05T08:43:56.104Z,68.24
2018-11-05T08:58:51.056Z,68.16
2018-11-05T09:01:40.625Z,67.63
2018-11-05T09:04:27.708Z,67.83
2018-11-05T09:06:56.365Z,67.68
2018-11-05T09:09:28.024Z,67.04
2018-11-05T09:12:01.362Z,66.26
2018-11-05T09:17:53.835Z,66.12
2018-11-05T09:44:43.597Z,61.05
2018-11-05T09:47:12.028Z,59.87
2018-11-05T09:49:43.577Z,60.56
2018-11-05T09:52:11.926Z,58.73
2018-11-05T09:54:40.406Z,58.29
2018-11-05T09:57:08.972Z,58.75
2018-11-05T09:59:37.658Z,57.90
2018-11-05T10:02:06.199Z,57.34
2018-11-05T10:04:34.783Z,57.41
2018-11-05T10:07:03.178Z,56.94
2018-11-05T10:09:32.393Z,57.01
2018-11-05T10:12:00.882Z,56.66
2018-11-05T10:14:29.330Z,57.12
2018-11-05T10:16:57.766Z,56.43
2018-11-05T10:19:26.546Z,56.78
2018-11-05T10:21:56.014Z,56.43
2018-11-05T10:24:24.573Z,56.86
2018-11-05T10:26:53.300Z,57.64
2018-11-05T10:29:21.966Z,56.83
2018-11-05T10:31:50.443Z,56.86
2018-11-05T13:03:51.161Z,57.69
2018-11-05T13:06:26.688Z,58.00
2018-11-05T13:08:55.604Z,57.23
2018-11-05T13:11:24.410Z,57.46
2018-11-05T13:13:53.522Z,57.35
2018-11-05T13:16:29.131Z,57.33
2018-11-05T13:18:57.846Z,57.44
2018-11-05T13:21:27.863Z,57.21
2018-11-05T13:23:56.983Z,56.76
2018-11-05T13:26:25.778Z,55.94
2018-11-05T13:28:54.660Z,55.59
2018-11-05T13:31:23.789Z,56.30
2018-11-05T13:33:55.367Z,56.37
2018-11-05T13:36:28.014Z,55.81
2018-11-05T13:53:02.637Z,51.72
2018-11-05T13:55:33.940Z,51.13
2018-11-05T13:58:05.000Z,50.13
2018-11-05T14:00:33.478Z,49.42
2018-11-05T14:03:02.049Z,48.84
2018-11-05T14:05:30.603Z,47.44
2018-11-05T14:07:59.019Z,46.82
2018-11-05T14:10:27.511Z,45.64
2018-11-05T14:12:56.017Z,44.54
2018-11-05T14:15:24.447Z,44.33
2018-11-05T14:17:52.879Z,42.17
2018-11-05T14:20:21.579Z,38.62
2018-11-05T14:22:50.031Z,36.33
2018-11-05T14:25:19.696Z,34.87
2018-11-05T14:27:49.592Z,32.65
2018-11-05T14:30:17.902Z,31.38
2018-11-05T14:32:47.419Z,29.52
2018-11-05T14:35:15.986Z,28.39
2018-11-05T14:37:44.409Z,30.17
2018-11-05T14:40:14.479Z,33.21
2018-11-05T14:42:43.062Z,34.79
2018-11-05T14:45:13.450Z,37.21
2018-11-05T14:47:43.246Z,38.77
2018-11-05T14:50:13.586Z,39.23
2018-11-05T14:52:42.042Z,38.81
2018-11-05T14:55:13.111Z,39.97
2018-11-05T14:57:41.971Z,39.96
2018-11-05T15:00:13.459Z,42.83
2018-11-05T15:02:42.349Z,44.07
2018-11-05T15:05:12.047Z,45.74
2018-11-05T16:24:06.742Z,60.48
2018-11-05T16:26:35.209Z,60.36
2018-11-05T16:29:03.704Z,60.76
2018-11-05T16:31:38.643Z,60.81
2018-11-05T16:34:07.275Z,60.26
2018-11-05T16:36:36.556Z,60.06
2018-11-05T16:39:18.851Z,60.19
2018-11-05T16:41:58.240Z,60.05
2018-11-05T16:44:27.141Z,59.92
2018-11-05T16:46:55.723Z,60.18
2018-11-05T16:49:24.239Z,59.98
2018-11-05T16:51:53.603Z,60.01
2018-11-05T16:54:23.246Z,59.96
2018-11-05T16:57:00.019Z,60.17
2018-11-05T16:59:29.154Z,60.35
2018-11-05T17:01:58.407Z,60.48
2018-11-05T20:06:18.858Z,50.28
2018-11-05T20:08:48.623Z,51.14
2018-11-05T20:11:17.305Z,52.47
2018-11-05T20:14:03.850Z,52.21
2018-11-05T20:16:45.926Z,52.05
2018-11-05T20:19:36.101Z,52.81
2018-11-05T20:22:14.251Z,51.38
2018-11-05T20:24:47.199Z,52.11
2018-11-05T20:27:18.154Z,52.05
2018-11-05T20:29:46.724Z,52.37
2018-11-05T20:32:15.459Z,50.39
2018-11-05T20:34:43.840Z,50.44
2018-11-05T20:37:39.989Z,49.22
2018-11-05T20:40:22.414Z,49.05
2018-11-05T20:42:59.946Z,49.45
2018-11-05T20:45:31.700Z,49.85
2018-11-05T20:48:05.832Z,49.86
2018-11-05T20:54:08.216Z,49.22
2018-11-05T20:57:22.688Z,49.17
2018-11-05T20:59:51.369Z,49.67
2018-11-05T21:02:20.049Z,49.96
2018-11-05T21:05:52.241Z,49.22
2018-11-05T21:08:20.959Z,49.70
2018-11-05T21:10:49.665Z,49.43
2018-11-05T21:13:18.465Z,49.81
2018-11-05T21:15:47.194Z,49.97
2018-11-05T21:18:15.847Z,49.87
2018-11-05T21:20:44.657Z,49.02
2018-11-05T21:23:13.279Z,48.74
2018-11-05T21:25:42.055Z,48.50
2018-11-05T21:28:10.857Z,48.12
2018-11-05T21:30:39.554Z,48.43
2018-11-05T21:33:08.416Z,48.06
2018-11-05T21:35:39.356Z,46.66
2018-11-05T21:38:08.735Z,47.57
2018-11-05T21:40:38.018Z,48.36
2018-11-05T21:43:07.598Z,48.10
2018-11-05T21:45:36.809Z,48.09
2018-11-05T21:48:11.770Z,46.54
2018-11-05T21:50:40.410Z,46.12
2018-11-05T21:53:34.451Z,45.88
2018-11-05T21:56:03.644Z,44.90
2018-11-05T21:58:32.528Z,43.58
2018-11-05T22:01:05.693Z,44.59
2018-11-05T22:03:34.732Z,44.92
2018-11-05T22:17:27.057Z,45.52
2018-11-05T22:19:55.757Z,45.24
2018-11-05T22:22:24.219Z,46.38
2018-11-05T22:24:52.602Z,46.09
2018-11-05T22:27:21.088Z,45.72
2018-11-05T22:29:49.467Z,44.85
2018-11-05T22:32:17.921Z,45.29
2018-11-05T22:34:46.311Z,46.25
2018-11-05T22:37:14.763Z,46.70
2018-11-05T22:39:43.186Z,47.65
2018-11-05T22:42:11.602Z,47.16
2018-11-05T22:44:39.982Z,46.62
2018-11-05T22:47:08.410Z,46.68
2018-11-05T22:49:37.230Z,47.93
2018-11-05T22:52:06.679Z,48.30
2018-11-05T22:54:35.098Z,47.68
2018-11-05T22:57:03.546Z,47.82
2018-11-05T22:59:31.986Z,48.86
2018-11-05T23:02:00.421Z,49.09
2018-11-05T23:04:42.182Z,49.24
2018-11-05T23:07:10.945Z,50.05
2018-11-05T23:09:40.140Z,49.78
2018-11-05T23:12:08.862Z,49.52
2018-11-05T23:14:39.265Z,49.59
2018-11-05T23:17:08.055Z,49.54
2018-11-05T23:19:41.423Z,48.73
2018-11-05T23:22:18.675Z,48.72
2018-11-05T23:24:47.203Z,49.64
2018-11-05T23:27:15.764Z,48.89
2018-11-05T23:29:44.354Z,49.28
2018-11-05T23:32:12.797Z,49.02
2018-11-05T23:34:41.279Z,48.96
2018-11-05T23:37:09.752Z,48.29
2018-11-05T23:39:38.242Z,49.01
2018-11-05T23:42:06.751Z,49.80
2018-11-05T23:44:35.255Z,48.70
2018-11-05T23:47:03.743Z,49.27
2018-11-05T23:49:32.196Z,49.07
2018-11-05T23:52:00.669Z,49.41
2018-11-05T23:54:29.162Z,49.39
2018-11-05T23:56:57.633Z,48.96
2018-11-05T23:59:26.049Z,50.29
